Newtonsville, Ohio
Current Conditions -  °F | °C
As of 4:23 PM on Friday 31 Oct 2014 (Local Time) from KLUK Reporting Station
Light Rain Light Rain  
Wind Chill: 37°   Ceiling: 2600
Heat Index: 42°   Visibility: 10mi
Dew Point: 36°   Wind: 8mph
Humidity: 79%   Direction: 310°NW
Pressure: 29.95"   Gusts: NA
Location:  39.18°N, 84.09°W
Report Text: KLUK 312023Z 31007KT 10SM -RA SCT020 BKN026 OVC039 06/02 A2995 RMK AO2 P0000 T00560022
Loading
Personal Weather Stations






























Interactive Weather Map
Tropical Storm Tracking
New forecast layout! Learn more

10-Day Weather Forecast

Advertisements
Track Severe Weather on mobile